createdAt,value
2019-03-23T00:00:59.141Z,15.43
2019-03-23T00:03:32.860Z,15.70
2019-03-23T00:06:06.707Z,15.75
2019-03-23T00:08:40.444Z,15.23
2019-03-23T00:11:15.143Z,14.75
2019-03-23T00:13:48.771Z,14.87
2019-03-23T00:16:22.380Z,13.40
2019-03-23T00:18:55.959Z,13.80
2019-03-23T00:21:30.593Z,16.58
2019-03-23T00:24:04.364Z,16.00
2019-03-23T00:26:38.022Z,14.63
2019-03-23T00:29:11.683Z,15.32
2019-03-23T00:31:46.240Z,14.52
2019-03-23T00:34:19.868Z,16.65
2019-03-23T00:36:53.579Z,15.75
2019-03-23T00:39:27.245Z,14.52
2019-03-23T00:42:00.932Z,14.18
2019-03-23T00:44:34.706Z,14.57
2019-03-23T00:47:08.323Z,13.05
2019-03-23T00:49:42.842Z,14.10
2019-03-23T00:52:16.581Z,15.35
2019-03-23T00:54:50.154Z,15.07
2019-03-23T00:57:24.581Z,14.87
2019-03-23T00:59:58.333Z,15.25
2019-03-23T01:02:31.884Z,14.95
2019-03-23T01:05:05.627Z,16.60
2019-03-23T01:07:39.403Z,13.50
2019-03-23T01:10:13.847Z,14.48
2019-03-23T01:12:47.509Z,15.48
2019-03-23T01:15:21.131Z,14.00
2019-03-23T01:17:55.432Z,15.73
2019-03-23T01:20:29.777Z,14.18
2019-03-23T01:23:03.545Z,16.50
2019-03-23T01:25:37.979Z,16.30
2019-03-23T01:28:12.289Z,16.20
2019-03-23T01:30:45.831Z,14.65
2019-03-23T01:33:19.403Z,16.37
2019-03-23T01:35:52.995Z,14.75
2019-03-23T01:38:26.695Z,16.40
2019-03-23T01:41:00.288Z,15.73
2019-03-23T01:43:34.072Z,15.75
2019-03-23T01:46:07.620Z,14.90
2019-03-23T01:48:41.316Z,16.40
2019-03-23T01:51:14.973Z,15.43
2019-03-23T01:53:48.652Z,16.42
2019-03-23T01:56:22.318Z,15.23
2019-03-23T01:58:55.946Z,17.20
2019-03-23T02:01:29.800Z,16.80
2019-03-23T02:04:03.325Z,14.68
2019-03-23T02:06:36.905Z,15.27
2019-03-23T02:09:10.587Z,15.25
2019-03-23T02:11:44.386Z,15.50
2019-03-23T02:14:17.985Z,15.13
2019-03-23T02:16:51.567Z,14.05
2019-03-23T02:19:25.348Z,16.05
2019-03-23T02:21:59.027Z,14.50
2019-03-23T02:24:32.678Z,14.57
2019-03-23T02:27:06.471Z,14.85
2019-03-23T02:29:40.022Z,13.60
2019-03-23T02:32:13.677Z,14.80
2019-03-23T02:34:48.224Z,14.30
2019-03-23T02:37:27.883Z,14.90
2019-03-23T02:39:56.291Z,15.82
2019-03-23T02:42:30.126Z,14.77
2019-03-23T02:45:05.516Z,14.38
2019-03-23T02:47:39.315Z,16.48
2019-03-23T02:50:13.232Z,14.13
2019-03-23T02:52:46.896Z,13.75
2019-03-23T02:55:20.758Z,14.68
2019-03-23T02:57:54.571Z,13.43
2019-03-23T03:00:29.125Z,15.35
2019-03-23T03:03:02.683Z,17.12
2019-03-23T03:05:36.500Z,14.18
2019-03-23T03:08:10.001Z,14.30
2019-03-23T03:10:43.782Z,14.00
2019-03-23T03:13:18.254Z,14.30
2019-03-23T03:15:51.999Z,15.13
2019-03-23T03:18:25.829Z,14.35
2019-03-23T03:20:59.610Z,14.50
2019-03-23T03:23:33.162Z,15.70
2019-03-23T03:26:06.926Z,12.93
2019-03-23T03:28:40.571Z,14.05
2019-03-23T03:31:14.183Z,14.50
2019-03-23T03:33:48.630Z,14.35
2019-03-23T03:36:23.123Z,13.82
2019-03-23T03:38:56.832Z,14.65
2019-03-23T03:41:30.679Z,12.57
2019-03-23T03:44:05.093Z,13.75
2019-03-23T03:46:38.713Z,13.77
2019-03-23T03:49:13.340Z,15.38
2019-03-23T03:51:47.111Z,14.70
2019-03-23T03:54:20.736Z,14.70
2019-03-23T03:56:54.322Z,13.00
2019-03-23T03:59:28.708Z,15.07
2019-03-23T04:02:02.466Z,14.50
2019-03-23T04:04:36.023Z,14.25
2019-03-23T04:07:09.632Z,14.38
2019-03-23T04:09:44.144Z,15.40
2019-03-23T04:12:18.594Z,15.07
2019-03-23T04:14:53.194Z,14.27
2019-03-23T04:17:26.708Z,14.30
2019-03-23T04:20:01.030Z,14.13
2019-03-23T04:22:34.732Z,13.75
2019-03-23T04:25:09.127Z,14.65
2019-03-23T04:27:42.677Z,13.40
2019-03-23T04:30:16.260Z,14.85
2019-03-23T04:32:49.950Z,14.93
2019-03-23T04:35:23.711Z,13.80
2019-03-23T04:37:58.136Z,13.13
2019-03-23T04:40:31.933Z,13.50
2019-03-23T04:43:05.584Z,13.70
2019-03-23T04:45:39.174Z,15.00
2019-03-23T04:48:12.792Z,14.55
2019-03-23T04:50:46.650Z,15.02
2019-03-23T04:53:20.297Z,14.52
2019-03-23T04:55:53.804Z,12.32
2019-03-23T04:58:27.483Z,13.35
2019-03-23T05:01:01.090Z,14.68
2019-03-23T05:03:34.698Z,14.23
2019-03-23T05:06:08.383Z,14.57
2019-03-23T05:08:41.933Z,14.10
2019-03-23T05:11:15.474Z,13.48
2019-03-23T05:13:49.177Z,14.50
2019-03-23T05:16:22.896Z,14.35
2019-03-23T05:18:56.440Z,15.13
2019-03-23T05:21:30.170Z,14.55
2019-03-23T05:24:03.729Z,16.08
2019-03-23T05:26:37.278Z,16.05
2019-03-23T05:29:10.922Z,14.70
2019-03-23T05:31:44.458Z,14.70
2019-03-23T05:34:18.207Z,14.68
2019-03-23T05:36:51.788Z,13.15
2019-03-23T05:39:25.540Z,13.13
2019-03-23T05:41:59.081Z,14.43
2019-03-23T05:44:32.613Z,15.73
2019-03-23T05:47:06.383Z,15.43
2019-03-23T05:49:40.032Z,16.25
2019-03-23T05:52:13.624Z,14.98
2019-03-23T05:54:47.323Z,16.12
2019-03-23T05:57:21.086Z,15.07
2019-03-23T05:59:54.628Z,13.38
2019-03-23T06:02:28.196Z,13.30
2019-03-23T06:05:01.846Z,16.48
2019-03-23T06:07:35.391Z,14.20
2019-03-23T06:10:08.928Z,14.55
2019-03-23T06:12:42.502Z,16.02
2019-03-23T06:15:16.046Z,15.77
2019-03-23T06:17:49.658Z,14.68
2019-03-23T06:20:23.315Z,16.37
2019-03-23T06:22:57.682Z,15.23
2019-03-23T06:25:31.412Z,13.75
2019-03-23T06:28:05.003Z,15.05
2019-03-23T06:30:38.551Z,15.30
2019-03-23T06:33:12.158Z,17.67
2019-03-23T06:35:45.762Z,14.90
2019-03-23T06:38:19.442Z,16.70
2019-03-23T06:40:53.254Z,15.90
2019-03-23T06:43:27.019Z,15.15
2019-03-23T06:46:00.759Z,16.23
2019-03-23T06:48:35.306Z,15.10
2019-03-23T06:51:09.108Z,14.68
2019-03-23T06:53:43.580Z,15.80
2019-03-23T06:56:17.107Z,15.20
2019-03-23T06:58:51.047Z,14.65
2019-03-23T07:01:24.810Z,14.70
2019-03-23T07:03:58.481Z,15.55
2019-03-23T07:06:32.053Z,16.30
2019-03-23T07:09:15.527Z,16.23
2019-03-23T07:11:39.219Z,16.62
2019-03-23T07:14:12.985Z,15.27
2019-03-23T07:16:47.523Z,16.42
2019-03-23T07:19:21.252Z,16.27
2019-03-23T07:21:55.022Z,14.57
2019-03-23T07:24:28.782Z,17.40
2019-03-23T07:27:02.880Z,14.52
2019-03-23T07:29:36.641Z,15.38
2019-03-23T07:32:11.123Z,15.80
2019-03-23T07:34:47.774Z,15.90
2019-03-23T07:37:21.479Z,15.50
2019-03-23T07:39:55.351Z,17.12
2019-03-23T07:42:29.038Z,16.42
2019-03-23T07:45:02.746Z,16.30
2019-03-23T07:47:37.137Z,18.10
2019-03-23T07:50:11.600Z,15.82
2019-03-23T07:52:45.281Z,15.70
2019-03-23T07:55:19.680Z,17.73
2019-03-23T07:57:53.271Z,16.75
2019-03-23T08:00:26.875Z,16.35
2019-03-23T08:03:00.607Z,15.95
2019-03-23T08:05:34.235Z,17.25
2019-03-23T08:08:07.976Z,15.10
2019-03-23T08:10:41.582Z,16.90
2019-03-23T08:13:15.322Z,17.58
2019-03-23T08:15:49.173Z,16.58
2019-03-23T08:18:22.785Z,16.90
2019-03-23T08:20:56.559Z,17.50
2019-03-23T08:23:30.141Z,16.60
2019-03-23T08:26:04.565Z,17.45
2019-03-23T08:28:38.118Z,17.30
2019-03-23T08:31:11.789Z,15.68
2019-03-23T08:33:45.516Z,16.42
2019-03-23T08:36:19.419Z,16.15
2019-03-23T08:38:53.141Z,16.95
2019-03-23T08:41:26.752Z,15.27
2019-03-23T08:44:00.899Z,17.30
2019-03-23T08:46:35.478Z,16.85
2019-03-23T08:49:09.304Z,16.73
2019-03-23T08:51:43.857Z,17.67
2019-03-23T08:54:17.611Z,16.57
2019-03-23T08:56:51.427Z,17.57
2019-03-23T08:59:24.951Z,16.97
2019-03-23T09:01:58.563Z,16.70
2019-03-23T09:04:32.187Z,17.60
2019-03-23T09:07:05.891Z,17.53
2019-03-23T09:09:39.541Z,17.20
2019-03-23T09:12:13.190Z,18.17
2019-03-23T09:14:46.964Z,18.17
2019-03-23T09:17:20.790Z,15.97
2019-03-23T09:19:54.500Z,16.40
2019-03-23T09:22:28.300Z,17.43
2019-03-23T09:25:01.990Z,16.30
2019-03-23T09:27:35.569Z,16.63
2019-03-23T09:30:10.014Z,16.63
2019-03-23T09:32:43.699Z,17.23
2019-03-23T09:35:17.339Z,17.03
2019-03-23T09:37:51.089Z,17.90
2019-03-23T09:40:24.856Z,16.20
2019-03-23T09:42:58.523Z,17.30
2019-03-23T09:45:32.507Z,17.30
2019-03-23T09:48:06.298Z,17.07
2019-03-23T09:50:40.713Z,17.00
2019-03-23T09:53:15.982Z,17.13
2019-03-23T09:55:49.724Z,17.33
2019-03-23T09:58:23.535Z,17.90
2019-03-23T10:00:58.205Z,17.63
2019-03-23T10:03:32.682Z,18.07
2019-03-23T10:06:07.019Z,17.10
2019-03-23T10:08:40.592Z,18.03
2019-03-23T10:11:14.234Z,19.00
2019-03-23T10:13:48.730Z,17.73
2019-03-23T10:16:22.426Z,20.57
2019-03-23T10:18:56.194Z,18.60
2019-03-23T10:21:30.003Z,18.33
2019-03-23T10:24:03.704Z,19.30
2019-03-23T10:26:37.652Z,18.13
2019-03-23T10:29:11.681Z,17.40
2019-03-23T10:31:45.467Z,17.80
2019-03-23T10:34:19.133Z,19.77
2019-03-23T10:36:52.955Z,17.53
2019-03-23T10:39:26.640Z,19.73
2019-03-23T10:42:01.265Z,18.03
2019-03-23T10:44:34.907Z,20.00
2019-03-23T10:47:08.716Z,18.80
2019-03-23T10:49:42.315Z,18.40
2019-03-23T10:52:16.557Z,21.13
2019-03-23T10:54:50.492Z,20.20
2019-03-23T10:57:24.035Z,20.47
2019-03-23T10:59:58.026Z,20.23
2019-03-23T11:02:32.219Z,18.60
2019-03-23T11:05:06.305Z,21.40
2019-03-23T11:07:39.963Z,18.10
2019-03-23T11:10:13.838Z,18.47
2019-03-23T11:12:47.604Z,15.50
2019-03-23T11:15:21.834Z,18.70
2019-03-23T11:17:56.589Z,18.60
2019-03-23T11:20:32.377Z,17.13
2019-03-23T11:23:08.408Z,16.07
2019-03-23T11:25:42.947Z,16.50
2019-03-23T11:28:16.589Z,16.73
2019-03-23T11:30:50.127Z,15.77
2019-03-23T11:33:23.846Z,17.10
2019-03-23T11:35:58.238Z,17.80
2019-03-23T11:38:31.091Z,17.60
2019-03-23T11:41:04.986Z,18.50
2019-03-23T11:43:38.706Z,18.90
2019-03-23T11:46:12.418Z,18.20
2019-03-23T11:48:46.103Z,17.97
2019-03-23T11:51:19.751Z,20.15
2019-03-23T11:53:53.478Z,17.45
2019-03-23T11:56:30.570Z,19.27
2019-03-23T11:59:00.792Z,17.65
2019-03-23T12:01:35.912Z,19.33
2019-03-23T12:04:10.255Z,18.15
2019-03-23T12:06:43.926Z,19.25
2019-03-23T12:09:17.573Z,17.08
2019-03-23T12:11:51.172Z,20.45
2019-03-23T12:14:24.969Z,19.87
2019-03-23T12:16:58.691Z,17.45
2019-03-23T12:19:32.321Z,19.37
2019-03-23T12:22:06.909Z,18.42
2019-03-23T12:24:40.663Z,18.65
2019-03-23T12:27:14.415Z,18.62
2019-03-23T12:29:48.344Z,19.87
2019-03-23T12:32:22.068Z,19.20
2019-03-23T12:34:55.691Z,19.85
2019-03-23T12:37:30.050Z,19.12
2019-03-23T12:40:03.756Z,19.17
2019-03-23T12:42:38.988Z,19.17
2019-03-23T12:45:13.609Z,17.70
2019-03-23T12:47:47.186Z,19.20
2019-03-23T12:50:21.626Z,17.27
2019-03-23T12:52:57.485Z,18.77
2019-03-23T12:55:30.602Z,18.65
2019-03-23T12:58:04.248Z,17.33
2019-03-23T13:00:37.919Z,16.85
2019-03-23T13:03:13.244Z,16.65
2019-03-23T13:05:46.817Z,18.67
2019-03-23T13:08:20.453Z,22.48
2019-03-23T13:10:54.224Z,18.08
2019-03-23T13:13:27.962Z,14.35
2019-03-23T13:16:01.696Z,17.60
2019-03-23T13:18:35.594Z,17.10
2019-03-23T13:21:09.341Z,16.73
2019-03-23T13:23:43.114Z,15.98
2019-03-23T13:26:16.952Z,15.68
2019-03-23T13:28:50.674Z,16.65
2019-03-23T13:31:24.237Z,16.30
2019-03-23T13:33:57.925Z,15.52
2019-03-23T13:36:32.365Z,17.90
2019-03-23T13:39:06.079Z,15.93
2019-03-23T13:41:46.322Z,17.02
2019-03-23T13:44:19.905Z,15.80
2019-03-23T13:46:54.083Z,15.57
2019-03-23T13:49:27.957Z,15.65
2019-03-23T13:52:01.933Z,17.33
2019-03-23T13:54:35.495Z,16.70
2019-03-23T13:57:09.306Z,15.43
2019-03-23T13:59:43.114Z,16.35
2019-03-23T14:02:16.762Z,16.37
2019-03-23T14:04:50.412Z,16.65
2019-03-23T14:07:24.042Z,15.32
2019-03-23T14:09:58.590Z,16.55
2019-03-23T14:12:32.491Z,16.08
2019-03-23T14:15:07.067Z,16.75
2019-03-23T14:17:40.803Z,14.60
2019-03-23T14:20:14.573Z,15.65
2019-03-23T14:22:48.346Z,17.33
2019-03-23T14:25:21.953Z,14.73
2019-03-23T14:27:56.322Z,17.83
2019-03-23T14:30:30.132Z,16.87
2019-03-23T14:33:04.614Z,17.12
2019-03-23T14:35:38.301Z,17.55
2019-03-23T14:38:12.725Z,15.13
2019-03-23T14:40:46.316Z,15.75
2019-03-23T14:43:20.835Z,16.75
2019-03-23T14:45:54.553Z,16.95
2019-03-23T14:48:28.183Z,18.62
2019-03-23T14:51:01.804Z,17.92
2019-03-23T14:53:35.594Z,15.73
2019-03-23T14:56:09.180Z,17.40
2019-03-23T14:58:43.586Z,17.95
2019-03-23T15:01:17.131Z,16.73
2019-03-23T15:03:50.899Z,18.77
2019-03-23T15:06:24.629Z,17.45
2019-03-23T15:08:59.177Z,18.75
2019-03-23T15:11:32.908Z,18.12
2019-03-23T15:14:06.724Z,16.65
2019-03-23T15:16:40.355Z,19.15
2019-03-23T15:19:15.666Z,19.70
2019-03-23T15:21:47.635Z,21.35
2019-03-23T15:24:21.358Z,17.80
2019-03-23T15:26:54.956Z,17.30
2019-03-23T15:29:29.222Z,16.12
2019-03-23T15:32:02.951Z,16.00
2019-03-23T15:34:36.595Z,17.35
2019-03-23T15:37:11.081Z,19.12
2019-03-23T15:39:44.702Z,17.75
2019-03-23T15:42:24.731Z,17.65
2019-03-23T15:44:52.224Z,17.90
2019-03-23T15:47:25.920Z,16.25
2019-03-23T15:49:59.627Z,17.40
2019-03-23T15:52:33.281Z,16.27
2019-03-23T15:55:06.838Z,16.98
2019-03-23T15:57:40.487Z,16.80
2019-03-23T16:00:14.382Z,17.92
2019-03-23T16:02:48.190Z,20.70
2019-03-23T16:05:22.018Z,20.08
2019-03-23T16:07:55.845Z,16.35
2019-03-23T16:10:29.698Z,18.12
2019-03-23T16:13:03.227Z,18.45
2019-03-23T16:15:36.860Z,17.58
2019-03-23T16:18:10.644Z,16.10
2019-03-23T16:20:44.403Z,16.87
2019-03-23T16:23:18.889Z,16.00
2019-03-23T16:25:52.691Z,17.45
2019-03-23T16:28:26.250Z,17.62
2019-03-23T16:31:00.125Z,17.70
2019-03-23T16:33:33.829Z,19.00
2019-03-23T16:36:08.377Z,16.15
2019-03-23T16:38:42.252Z,17.92
2019-03-23T16:41:15.863Z,17.85
2019-03-23T16:43:49.682Z,17.77
2019-03-23T16:46:23.988Z,17.17
2019-03-23T16:48:57.790Z,17.95
2019-03-23T16:51:31.590Z,18.65
2019-03-23T16:54:05.305Z,18.58
2019-03-23T16:56:39.048Z,17.40
2019-03-23T16:59:12.775Z,18.42
2019-03-23T17:01:47.216Z,18.95
2019-03-23T17:04:20.791Z,18.37
2019-03-23T17:06:54.367Z,19.52
2019-03-23T17:09:28.056Z,22.05
2019-03-23T17:12:02.540Z,20.23
2019-03-23T17:14:36.883Z,19.85
2019-03-23T17:17:10.541Z,17.58
2019-03-23T17:19:44.154Z,18.33
2019-03-23T17:22:17.986Z,17.37
2019-03-23T17:24:51.749Z,21.05
2019-03-23T17:27:26.172Z,18.45
2019-03-23T17:29:59.775Z,18.23
2019-03-23T17:32:33.357Z,19.00
2019-03-23T17:35:06.934Z,21.08
2019-03-23T17:37:40.725Z,19.00
2019-03-23T17:40:15.024Z,19.95
2019-03-23T17:42:49.532Z,20.20
2019-03-23T17:45:23.337Z,17.70
2019-03-23T17:47:57.050Z,17.23
2019-03-23T17:50:30.611Z,20.77
2019-03-23T17:53:04.138Z,20.62
2019-03-23T17:55:37.787Z,19.25
2019-03-23T17:58:11.566Z,20.00
2019-03-23T18:00:45.256Z,22.10
2019-03-23T18:03:19.140Z,18.42
2019-03-23T18:05:52.862Z,18.55
2019-03-23T18:08:26.441Z,21.48
2019-03-23T18:11:00.066Z,23.75
2019-03-23T18:13:33.746Z,22.45
2019-03-23T18:16:08.107Z,20.37
2019-03-23T18:18:41.712Z,20.20
2019-03-23T18:21:15.418Z,21.15
2019-03-23T18:23:49.042Z,18.75
2019-03-23T18:26:22.698Z,20.10
2019-03-23T18:28:56.519Z,20.75
2019-03-23T18:31:30.104Z,18.75
2019-03-23T18:34:04.585Z,22.02
2019-03-23T18:36:38.143Z,22.73
2019-03-23T18:39:11.743Z,22.98
2019-03-23T18:41:46.167Z,22.23
2019-03-23T18:44:19.831Z,22.17
2019-03-23T18:46:54.038Z,24.10
2019-03-23T18:49:27.955Z,27.37
2019-03-23T18:52:01.710Z,21.60
2019-03-23T18:54:35.267Z,34.25
2019-03-23T18:57:08.981Z,27.45
2019-03-23T18:59:42.668Z,27.90
2019-03-23T19:02:16.188Z,28.58
2019-03-23T19:04:49.830Z,24.05
2019-03-23T19:07:23.605Z,22.13
2019-03-23T19:09:57.143Z,23.30
2019-03-23T19:12:30.910Z,24.90
2019-03-23T19:15:05.444Z,21.77
2019-03-23T19:17:39.007Z,24.55
2019-03-23T19:20:12.611Z,23.87
2019-03-23T19:22:46.145Z,19.33
2019-03-23T19:25:20.583Z,21.40
2019-03-23T19:27:54.221Z,20.67
2019-03-23T19:30:27.775Z,21.58
2019-03-23T19:33:01.381Z,29.42
2019-03-23T19:35:34.962Z,27.10
2019-03-23T19:38:08.501Z,22.87
2019-03-23T19:40:42.145Z,23.42
2019-03-23T19:43:15.749Z,26.92
2019-03-23T19:45:49.312Z,24.35
2019-03-23T19:48:22.888Z,22.33
2019-03-23T19:50:56.627Z,21.98
2019-03-23T19:53:30.435Z,23.90
2019-03-23T19:56:04.217Z,21.15
2019-03-23T19:58:38.007Z,21.15
2019-03-23T20:01:11.690Z,22.45
2019-03-23T20:03:45.398Z,23.87
2019-03-23T20:06:19.069Z,20.05
2019-03-23T20:08:53.592Z,23.30
2019-03-23T20:11:27.261Z,25.58
2019-03-23T20:14:00.813Z,22.13
2019-03-23T20:16:34.444Z,22.73
2019-03-23T20:19:08.968Z,21.45
2019-03-23T20:21:43.490Z,18.08
2019-03-23T20:24:17.137Z,19.77
2019-03-23T20:26:50.713Z,20.35
2019-03-23T20:29:24.551Z,17.50
2019-03-23T20:31:58.425Z,19.77
2019-03-23T20:34:33.081Z,19.02
2019-03-23T20:37:08.460Z,19.33
2019-03-23T20:39:41.267Z,19.50
2019-03-23T20:42:14.920Z,20.30
2019-03-23T20:44:49.457Z,20.67
2019-03-23T20:47:23.062Z,19.25
2019-03-23T20:49:56.675Z,19.37
2019-03-23T20:52:30.512Z,21.37
2019-03-23T20:55:05.213Z,21.02
2019-03-23T20:57:39.759Z,22.15
2019-03-23T21:00:13.317Z,22.95
2019-03-23T21:02:47.186Z,24.27
2019-03-23T21:05:21.745Z,22.52
2019-03-23T21:07:56.218Z,22.87
2019-03-23T21:10:30.044Z,23.40
2019-03-23T21:13:03.771Z,20.75
2019-03-23T21:15:37.472Z,22.90
2019-03-23T21:18:11.261Z,21.95
2019-03-23T21:20:45.079Z,24.37
2019-03-23T21:23:18.906Z,22.85
2019-03-23T21:25:52.719Z,23.98
2019-03-23T21:28:26.266Z,21.98
2019-03-23T21:31:00.812Z,26.85
2019-03-23T21:33:38.895Z,23.75
2019-03-23T21:36:08.124Z,23.17
2019-03-23T21:38:41.754Z,23.58
2019-03-23T21:41:16.308Z,23.58
2019-03-23T21:43:49.988Z,24.37
2019-03-23T21:46:23.723Z,26.27
2019-03-23T21:48:57.343Z,26.08
2019-03-23T21:51:31.698Z,25.92
2019-03-23T21:54:05.511Z,26.08
2019-03-23T21:56:39.357Z,27.25
2019-03-23T21:59:12.948Z,27.27
2019-03-23T22:01:46.561Z,27.52
2019-03-23T22:04:20.326Z,30.05
2019-03-23T22:06:54.956Z,28.08
2019-03-23T22:09:29.312Z,25.42
2019-03-23T22:12:03.029Z,26.65
2019-03-23T22:14:41.611Z,27.35
2019-03-23T22:17:10.934Z,27.13
2019-03-23T22:19:44.692Z,28.85
2019-03-23T22:22:18.438Z,26.02
2019-03-23T22:24:52.270Z,26.30
2019-03-23T22:27:26.050Z,29.20
2019-03-23T22:29:59.727Z,25.25
2019-03-23T22:32:33.602Z,24.87
2019-03-23T22:35:07.208Z,24.45
2019-03-23T22:37:41.807Z,24.12
2019-03-23T22:40:15.657Z,27.00
2019-03-23T22:42:50.146Z,25.75
2019-03-23T22:45:24.593Z,22.77
2019-03-23T22:47:59.004Z,24.25
2019-03-23T22:50:32.759Z,26.80
2019-03-23T22:53:06.384Z,26.95
2019-03-23T22:55:39.998Z,24.05
2019-03-23T22:58:13.832Z,27.45
2019-03-23T23:00:47.363Z,25.75
2019-03-23T23:03:21.831Z,27.65
2019-03-23T23:05:55.849Z,25.77
2019-03-23T23:08:29.511Z,26.23
2019-03-23T23:11:03.716Z,26.30
2019-03-23T23:13:38.192Z,26.87
2019-03-23T23:16:11.839Z,27.80
2019-03-23T23:18:45.438Z,26.23
2019-03-23T23:21:19.171Z,26.50
2019-03-23T23:23:52.728Z,25.08
2019-03-23T23:26:27.146Z,27.15
2019-03-23T23:29:00.860Z,27.65
2019-03-23T23:31:34.439Z,27.00
2019-03-23T23:34:08.791Z,25.88
2019-03-23T23:36:42.476Z,26.60
2019-03-23T23:39:16.283Z,26.45
2019-03-23T23:41:50.780Z,25.52
2019-03-23T23:44:24.313Z,28.15
2019-03-23T23:46:58.745Z,28.15
2019-03-23T23:49:32.338Z,26.80
2019-03-23T23:52:05.984Z,27.17
2019-03-23T23:54:39.720Z,28.33
2019-03-23T23:57:13.437Z,27.70
2019-03-23T23:59:47.036Z,29.87
